createdAt,value
2023-02-14T00:01:20.597Z,66.10
2023-02-14T00:03:49.272Z,66.00
2023-02-14T00:06:16.535Z,65.80
2023-02-14T00:08:44.802Z,65.90
2023-02-14T00:11:13.061Z,65.90
2023-02-14T00:14:01.931Z,65.90
2023-02-14T00:16:29.297Z,65.30
2023-02-14T00:19:05.890Z,65.70
2023-02-14T00:21:36.015Z,65.70
2023-02-14T00:24:03.417Z,65.60
2023-02-14T00:26:30.599Z,65.60
2023-02-14T00:28:59.660Z,65.70
2023-02-14T00:31:26.981Z,65.90
2023-02-14T00:33:55.641Z,65.70
2023-02-14T00:36:23.015Z,65.20
2023-02-14T00:38:50.666Z,65.40
2023-02-14T00:41:20.578Z,65.50
2023-02-14T00:43:48.533Z,65.40
2023-02-14T00:46:18.622Z,65.40
2023-02-14T00:48:46.678Z,65.20
2023-02-14T00:51:14.691Z,65.30
2023-02-14T00:53:41.980Z,65.40
2023-02-14T00:56:09.161Z,65.80
2023-02-14T00:58:36.548Z,65.80
2023-02-14T01:01:04.123Z,65.90
2023-02-14T01:03:33.180Z,65.90
2023-02-14T01:06:00.405Z,65.90
2023-02-14T01:08:27.677Z,65.90
2023-02-14T01:10:54.884Z,66.10
2023-02-14T01:13:22.380Z,66.00
2023-02-14T01:15:51.382Z,66.00
2023-02-14T01:18:19.341Z,65.90
2023-02-14T01:20:50.218Z,66.10
2023-02-14T01:23:17.410Z,65.80
2023-02-14T01:25:44.601Z,65.80
2023-02-14T01:28:11.801Z,65.90
2023-02-14T01:30:40.721Z,66.10
2023-02-14T01:33:10.267Z,65.80
2023-02-14T01:35:37.872Z,65.70
2023-02-14T01:38:06.389Z,65.70
2023-02-14T01:40:34.410Z,65.80
2023-02-14T01:43:05.545Z,65.70
2023-02-14T01:45:32.921Z,65.90
2023-02-14T01:48:00.378Z,66.00
2023-02-14T01:50:32.771Z,66.10
2023-02-14T01:53:03.806Z,65.80
2023-02-14T01:55:35.888Z,65.70
2023-02-14T01:58:09.177Z,65.70
2023-02-14T02:00:57.217Z,65.90
2023-02-14T02:03:28.060Z,65.60
2023-02-14T02:05:59.982Z,65.50
2023-02-14T02:08:27.303Z,65.50
2023-02-14T02:10:55.880Z,65.40
2023-02-14T02:13:23.243Z,65.70
2023-02-14T02:16:12.183Z,65.60
2023-02-14T02:18:51.472Z,65.70
2023-02-14T02:22:09.105Z,65.60
2023-02-14T02:24:46.466Z,65.70
2023-02-14T02:27:40.503Z,65.70
2023-02-14T02:30:37.563Z,65.70
2023-02-14T02:33:54.521Z,66.10
2023-02-14T02:36:47.619Z,66.00
2023-02-14T02:39:47.941Z,65.80
2023-02-14T02:42:28.247Z,66.00
2023-02-14T02:45:04.557Z,65.60
2023-02-14T02:47:34.522Z,65.40
2023-02-14T02:50:28.521Z,65.60
2023-02-14T02:53:06.185Z,65.60
2023-02-14T02:56:00.974Z,65.20
2023-02-14T02:58:34.929Z,65.10
2023-02-14T03:01:08.134Z,65.10
2023-02-14T03:03:55.768Z,65.10
2023-02-14T03:06:23.020Z,65.20
2023-02-14T03:08:51.538Z,65.00
2023-02-14T03:11:18.881Z,65.10
2023-02-14T03:14:08.186Z,65.30
2023-02-14T03:17:00.445Z,65.40
2023-02-14T03:20:05.971Z,65.30
2023-02-14T03:22:48.635Z,65.20
2023-02-14T03:25:28.978Z,65.20
2023-02-14T03:28:07.809Z,65.50
2023-02-14T03:30:41.751Z,65.70
2023-02-14T03:33:18.238Z,65.90
2023-02-14T03:35:54.676Z,65.70
2023-02-14T03:38:26.151Z,65.70
2023-02-14T03:40:59.434Z,65.80
2023-02-14T03:43:32.963Z,65.60
2023-02-14T03:46:07.263Z,65.50
2023-02-14T03:48:36.229Z,65.20
2023-02-14T03:51:06.822Z,65.30
2023-02-14T03:53:38.813Z,65.20
2023-02-14T03:56:13.102Z,65.10
2023-02-14T03:58:43.436Z,65.30
2023-02-14T04:01:14.550Z,65.30
2023-02-14T04:03:43.265Z,65.50
2023-02-14T04:06:10.753Z,65.70
2023-02-14T04:08:38.037Z,65.80
2023-02-14T04:11:06.262Z,65.70
2023-02-14T04:13:36.704Z,65.80
2023-02-14T04:16:04.534Z,65.70
2023-02-14T04:18:50.605Z,65.70
2023-02-14T04:21:18.009Z,65.50
2023-02-14T04:23:45.177Z,65.40
2023-02-14T04:26:12.404Z,65.50
2023-02-14T04:28:40.955Z,65.60
2023-02-14T04:31:10.298Z,65.80
2023-02-14T04:33:39.229Z,66.00
2023-02-14T04:36:07.423Z,65.90
2023-02-14T04:38:34.627Z,66.00
2023-02-14T04:41:02.271Z,65.80
2023-02-14T04:43:29.692Z,65.60
2023-02-14T04:45:58.226Z,65.60
2023-02-14T04:48:25.491Z,65.80
2023-02-14T04:50:53.528Z,66.00
2023-02-14T04:53:20.878Z,66.20
2023-02-14T04:55:48.915Z,66.10
2023-02-14T04:58:16.234Z,66.20
2023-02-14T05:00:43.498Z,66.30
2023-02-14T05:03:12.064Z,66.00
2023-02-14T05:05:39.316Z,66.00
2023-02-14T05:08:06.531Z,66.20
2023-02-14T05:10:33.768Z,66.10
2023-02-14T05:13:01.151Z,66.10
2023-02-14T05:15:28.349Z,66.10
2023-02-14T05:17:55.540Z,66.00
2023-02-14T05:20:24.068Z,66.20
2023-02-14T05:22:51.253Z,66.00
2023-02-14T05:25:18.649Z,66.20
2023-02-14T05:27:45.897Z,66.40
2023-02-14T05:30:14.226Z,66.50
2023-02-14T05:32:41.435Z,66.20
2023-02-14T05:35:08.698Z,66.30
2023-02-14T05:37:37.192Z,66.20
2023-02-14T05:40:05.589Z,66.20
2023-02-14T05:42:32.776Z,66.10
2023-02-14T05:45:00.006Z,66.10
2023-02-14T05:47:27.203Z,65.70
2023-02-14T05:49:54.600Z,65.80
2023-02-14T05:52:21.833Z,66.00
2023-02-14T05:54:50.374Z,66.20
2023-02-14T05:57:17.565Z,66.30
2023-02-14T05:59:44.780Z,66.40
2023-02-14T06:02:12.119Z,66.20
2023-02-14T06:04:39.492Z,66.10
2023-02-14T06:07:06.696Z,66.00
2023-02-14T06:09:34.201Z,66.20
2023-02-14T06:12:02.795Z,65.90
2023-02-14T06:14:29.992Z,65.90
2023-02-14T06:16:57.247Z,66.20
2023-02-14T06:19:24.484Z,66.50
2023-02-14T06:21:51.700Z,66.50
2023-02-14T06:24:18.883Z,66.40
2023-02-14T06:26:46.083Z,66.20
2023-02-14T06:29:16.774Z,65.90
2023-02-14T06:31:44.192Z,65.70
2023-02-14T06:34:11.471Z,65.70
2023-02-14T06:36:38.766Z,65.80
2023-02-14T06:39:05.942Z,65.70
2023-02-14T06:41:33.207Z,65.60
2023-02-14T06:44:00.405Z,65.70
2023-02-14T06:46:28.946Z,65.70
2023-02-14T06:48:56.208Z,65.70
2023-02-14T06:51:23.408Z,65.60
2023-02-14T06:53:50.648Z,65.30
2023-02-14T06:56:17.836Z,65.60
2023-02-14T06:58:45.004Z,65.60
2023-02-14T07:01:12.235Z,65.90
2023-02-14T07:03:41.909Z,66.00
2023-02-14T07:06:09.156Z,66.00
2023-02-14T07:08:36.378Z,65.50
2023-02-14T07:11:03.670Z,65.40
2023-02-14T07:13:30.902Z,65.40
2023-02-14T07:15:58.177Z,66.90
2023-02-14T07:18:25.526Z,66.80
2023-02-14T07:20:54.141Z,67.10
2023-02-14T07:23:21.354Z,66.80
2023-02-14T07:25:48.725Z,66.10
2023-02-14T07:28:15.927Z,66.10
2023-02-14T07:30:43.204Z,65.90
2023-02-14T07:33:10.466Z,65.60
2023-02-14T07:35:37.706Z,65.50
2023-02-14T07:38:06.305Z,65.70
2023-02-14T07:40:33.569Z,65.40
2023-02-14T07:43:00.938Z,65.50
2023-02-14T07:45:28.234Z,65.30
2023-02-14T07:47:55.734Z,65.20
2023-02-14T07:50:23.423Z,65.00
2023-02-14T07:52:50.745Z,65.00
2023-02-14T07:55:19.431Z,65.20
2023-02-14T07:57:47.857Z,65.30
2023-02-14T08:00:15.774Z,65.40
2023-02-14T08:02:43.032Z,65.40
2023-02-14T08:05:10.375Z,65.40
2023-02-14T08:07:37.711Z,65.60
2023-02-14T08:10:06.363Z,65.70
2023-02-14T08:12:53.591Z,65.70
2023-02-14T08:15:39.539Z,65.60
2023-02-14T08:18:06.884Z,65.50
2023-02-14T08:20:34.176Z,65.60
2023-02-14T08:23:01.374Z,65.30
2023-02-14T08:25:28.705Z,65.40
2023-02-14T08:27:57.231Z,65.60
2023-02-14T08:30:24.747Z,65.40
2023-02-14T08:32:52.957Z,65.60
2023-02-14T08:35:20.184Z,65.40
2023-02-14T08:37:47.736Z,65.90
2023-02-14T08:40:15.200Z,65.80
2023-02-14T08:42:42.433Z,65.80
2023-02-14T08:45:11.197Z,65.90
2023-02-14T08:47:40.154Z,65.90
2023-02-14T08:50:11.285Z,66.00
2023-02-14T08:52:39.340Z,65.60
2023-02-14T08:55:06.665Z,65.70
2023-02-14T08:57:33.880Z,65.50
2023-02-14T09:00:01.188Z,65.60
2023-02-14T09:02:29.738Z,65.90
2023-02-14T09:04:56.946Z,65.90
2023-02-14T09:07:24.153Z,65.90
2023-02-14T09:09:51.423Z,65.90
2023-02-14T09:12:18.820Z,65.90
2023-02-14T09:14:46.167Z,65.90
2023-02-14T09:17:14.691Z,66.30
2023-02-14T09:19:43.509Z,66.20
2023-02-14T09:22:11.598Z,66.20
2023-02-14T09:24:39.946Z,66.00
2023-02-14T09:27:07.838Z,66.00
2023-02-14T09:29:35.225Z,66.00
2023-02-14T09:32:02.912Z,66.00
2023-02-14T09:34:48.986Z,65.90
2023-02-14T09:37:17.730Z,65.90
2023-02-14T09:39:44.996Z,66.00
2023-02-14T09:42:26.880Z,66.10
2023-02-14T09:44:57.962Z,66.00
2023-02-14T09:47:34.830Z,66.00
2023-02-14T09:50:05.289Z,65.80
2023-02-14T09:52:34.172Z,65.60
2023-02-14T09:55:03.184Z,65.60
2023-02-14T09:57:41.420Z,65.50
2023-02-14T10:00:19.982Z,65.10
2023-02-14T10:03:02.958Z,65.40
2023-02-14T10:05:35.768Z,65.20
2023-02-14T10:08:17.278Z,64.90
2023-02-14T10:10:48.133Z,64.80
2023-02-14T10:13:20.402Z,64.60
2023-02-14T10:15:50.653Z,64.90
2023-02-14T10:18:21.607Z,64.60
2023-02-14T10:20:53.682Z,64.30
2023-02-14T10:23:29.166Z,64.20
2023-02-14T10:26:01.243Z,64.80
2023-02-14T10:28:32.999Z,64.70
2023-02-14T10:31:13.853Z,64.50
2023-02-14T10:33:45.292Z,64.70
2023-02-14T10:36:25.295Z,64.70
2023-02-14T10:39:02.268Z,64.50
2023-02-14T10:41:39.490Z,63.90
2023-02-14T10:44:20.530Z,64.20
2023-02-14T10:46:52.706Z,63.90
2023-02-14T10:49:32.367Z,64.00
2023-02-14T10:52:08.094Z,63.80
2023-02-14T10:54:39.782Z,63.60
2023-02-14T10:57:14.636Z,63.90
2023-02-14T10:59:50.807Z,63.70
2023-02-14T11:02:22.690Z,63.80
2023-02-14T11:04:50.514Z,63.70
2023-02-14T11:07:20.065Z,63.80
2023-02-14T11:09:48.806Z,63.70
2023-02-14T11:12:31.886Z,63.50
2023-02-14T11:15:10.244Z,63.30
2023-02-14T11:17:37.979Z,63.00
2023-02-14T11:20:22.781Z,63.30
2023-02-14T11:22:50.706Z,63.00
2023-02-14T11:25:21.793Z,63.10
2023-02-14T11:27:51.923Z,62.80
2023-02-14T11:30:26.065Z,63.10
2023-02-14T11:32:55.997Z,63.20
2023-02-14T11:35:27.547Z,62.80
2023-02-14T11:37:57.124Z,63.30
2023-02-14T11:40:30.521Z,63.20
2023-02-14T11:43:13.525Z,63.10
2023-02-14T11:45:44.399Z,62.70
2023-02-14T11:48:31.447Z,62.80
2023-02-14T11:51:06.500Z,63.10
2023-02-14T11:53:43.406Z,62.40
2023-02-14T11:56:12.544Z,62.20
2023-02-14T11:58:50.043Z,61.70
2023-02-14T12:01:24.109Z,62.60
2023-02-14T12:03:52.994Z,62.70
2023-02-14T12:06:24.882Z,62.60
2023-02-14T12:08:52.377Z,62.30
2023-02-14T12:11:23.331Z,62.40
2023-02-14T12:13:54.573Z,62.60
2023-02-14T12:16:28.037Z,62.20
2023-02-14T12:19:00.666Z,61.90
2023-02-14T12:21:40.962Z,62.20
2023-02-14T12:24:17.197Z,62.30
2023-02-14T12:26:52.811Z,62.30
2023-02-14T12:29:27.889Z,62.30
2023-02-14T12:31:59.312Z,62.40
2023-02-14T12:34:27.208Z,62.50
2023-02-14T12:37:14.964Z,62.10
2023-02-14T12:39:57.747Z,61.80
2023-02-14T12:42:42.849Z,62.30
2023-02-14T12:45:15.809Z,62.80
2023-02-14T12:47:52.373Z,62.50
2023-02-14T12:50:27.724Z,62.00
2023-02-14T12:53:24.975Z,62.10
2023-02-14T12:56:03.012Z,62.10
2023-02-14T12:58:41.109Z,62.30
2023-02-14T13:01:38.510Z,62.50
2023-02-14T13:04:53.756Z,62.30
2023-02-14T13:07:37.628Z,62.30
2023-02-14T13:10:19.130Z,61.70
2023-02-14T13:12:53.872Z,62.30
2023-02-14T13:15:31.862Z,61.90
2023-02-14T13:18:08.644Z,62.50
2023-02-14T13:20:49.779Z,62.40
2023-02-14T13:23:22.322Z,62.40
2023-02-14T13:25:57.231Z,62.20
2023-02-14T13:28:25.533Z,62.40
2023-02-14T13:30:55.932Z,62.10
2023-02-14T13:33:27.632Z,62.30
2023-02-14T13:35:59.356Z,62.70
2023-02-14T13:38:28.248Z,62.20
2023-02-14T13:40:57.630Z,62.70
2023-02-14T13:43:47.847Z,62.10
2023-02-14T13:46:18.441Z,62.50
2023-02-14T13:48:58.143Z,62.10
2023-02-14T13:51:44.375Z,62.10
2023-02-14T13:54:22.203Z,62.50
2023-02-14T13:56:49.570Z,62.00
2023-02-14T13:59:26.998Z,61.90
2023-02-14T14:01:56.134Z,61.80
2023-02-14T14:04:37.633Z,62.00
2023-02-14T14:07:24.332Z,62.20
2023-02-14T14:10:03.152Z,61.90
2023-02-14T14:12:43.647Z,61.80
2023-02-14T14:15:14.983Z,62.40
2023-02-14T14:17:46.333Z,62.70
2023-02-14T14:20:39.981Z,62.60
2023-02-14T14:23:29.699Z,62.70
2023-02-14T14:25:57.166Z,63.10
2023-02-14T14:28:26.191Z,62.70
2023-02-14T14:30:54.048Z,62.50
2023-02-14T14:33:27.967Z,63.00
2023-02-14T14:35:57.021Z,62.70
2023-02-14T14:38:24.943Z,62.90
2023-02-14T14:40:52.592Z,62.80
2023-02-14T14:43:26.741Z,63.00
2023-02-14T14:45:56.145Z,62.60
2023-02-14T14:48:30.265Z,63.50
2023-02-14T14:50:58.297Z,63.40
2023-02-14T14:53:29.054Z,63.30
2023-02-14T14:55:57.192Z,63.00
2023-02-14T14:58:35.950Z,63.00
2023-02-14T15:01:04.739Z,63.00
2023-02-14T15:03:34.050Z,63.10
2023-02-14T15:06:07.915Z,62.90
2023-02-14T15:08:35.417Z,63.20
2023-02-14T15:11:07.960Z,63.20
2023-02-14T15:13:50.472Z,63.00
2023-02-14T15:16:24.985Z,63.00
2023-02-14T15:18:56.351Z,63.50
2023-02-14T15:21:23.788Z,63.70
2023-02-14T15:23:52.353Z,63.50
2023-02-14T15:26:24.911Z,63.50
2023-02-14T15:28:57.744Z,63.70
2023-02-14T15:31:29.318Z,63.80
2023-02-14T15:34:00.053Z,63.40
2023-02-14T15:36:27.514Z,63.50
2023-02-14T15:38:56.763Z,63.90
2023-02-14T15:41:24.735Z,63.50
2023-02-14T15:43:54.060Z,63.60
2023-02-14T15:46:29.983Z,63.70
2023-02-14T15:49:01.227Z,63.90
2023-02-14T15:51:31.509Z,64.10
2023-02-14T15:54:01.346Z,63.80
2023-02-14T15:56:31.285Z,64.00
2023-02-14T15:59:01.521Z,64.00
2023-02-14T16:01:30.184Z,64.00
2023-02-14T16:04:01.557Z,64.10
2023-02-14T16:06:37.399Z,64.40
2023-02-14T16:09:08.013Z,64.40
2023-02-14T16:11:37.155Z,64.40
2023-02-14T16:14:26.796Z,64.20
2023-02-14T16:16:58.529Z,64.60
2023-02-14T16:19:35.881Z,64.60
2023-02-14T16:22:03.376Z,64.60
2023-02-14T16:24:30.674Z,64.60
2023-02-14T16:26:58.154Z,64.90
2023-02-14T16:29:26.860Z,64.70
2023-02-14T16:32:14.752Z,64.80
2023-02-14T16:34:47.156Z,64.50
2023-02-14T16:37:22.642Z,64.70
2023-02-14T16:39:52.696Z,64.70
2023-02-14T16:42:20.079Z,64.80
2023-02-14T16:44:48.894Z,65.20
2023-02-14T16:47:17.739Z,65.20
2023-02-14T16:49:46.756Z,65.50
2023-02-14T16:52:16.580Z,65.60
2023-02-14T16:54:44.276Z,65.50
2023-02-14T16:57:16.515Z,65.50
2023-02-14T16:59:43.868Z,65.10
2023-02-14T17:02:12.068Z,65.20
2023-02-14T17:04:39.396Z,65.70
2023-02-14T17:07:08.492Z,65.70
2023-02-14T17:09:41.127Z,65.70
2023-02-14T17:12:16.068Z,65.70
2023-02-14T17:14:48.050Z,65.60
2023-02-14T17:17:16.315Z,65.50
2023-02-14T17:19:43.935Z,65.80
2023-02-14T17:22:14.145Z,66.30
2023-02-14T17:24:41.770Z,66.20
2023-02-14T17:27:09.766Z,66.20
2023-02-14T17:29:37.046Z,66.00
2023-02-14T17:32:04.662Z,66.00
2023-02-14T17:34:32.109Z,66.10
2023-02-14T17:36:59.707Z,66.20
2023-02-14T17:39:28.318Z,66.10
2023-02-14T17:41:56.675Z,66.10
2023-02-14T17:44:24.158Z,66.20
2023-02-14T17:46:53.234Z,65.70
2023-02-14T17:49:20.553Z,65.90
2023-02-14T17:51:48.351Z,66.40
2023-02-14T17:54:15.621Z,66.60
2023-02-14T17:56:44.193Z,66.30
2023-02-14T17:59:11.420Z,66.20
2023-02-14T18:01:38.640Z,66.10
2023-02-14T18:04:06.905Z,66.00
2023-02-14T18:06:34.398Z,66.10
2023-02-14T18:09:05.521Z,66.10
2023-02-14T18:11:32.944Z,66.10
2023-02-14T18:14:01.770Z,66.40
2023-02-14T18:16:29.157Z,66.50
2023-02-14T18:18:56.461Z,66.70
2023-02-14T18:21:24.508Z,66.50
2023-02-14T18:23:51.991Z,66.60
2023-02-14T18:26:19.300Z,66.50
2023-02-14T18:28:46.541Z,66.50
2023-02-14T18:31:17.070Z,66.60
2023-02-14T18:33:46.817Z,66.80
2023-02-14T18:36:16.799Z,66.80
2023-02-14T18:38:47.197Z,67.10
2023-02-14T18:41:17.042Z,67.20
2023-02-14T18:43:45.046Z,67.00
2023-02-14T18:46:14.468Z,66.80
2023-02-14T18:48:43.704Z,66.90
2023-02-14T18:51:13.577Z,66.80
2023-02-14T18:53:41.321Z,66.70
2023-02-14T18:56:10.543Z,66.60
2023-02-14T18:58:38.282Z,66.80
2023-02-14T19:01:09.142Z,66.90
2023-02-14T19:03:36.524Z,67.40
2023-02-14T19:06:05.611Z,67.20
2023-02-14T19:08:33.347Z,67.30
2023-02-14T19:11:02.099Z,67.40
2023-02-14T19:13:32.133Z,67.00
2023-02-14T19:15:59.630Z,67.00
2023-02-14T19:18:26.926Z,67.30
2023-02-14T19:20:54.121Z,67.40
2023-02-14T19:23:22.636Z,67.40
2023-02-14T19:25:49.841Z,67.60
2023-02-14T19:28:17.231Z,67.50
2023-02-14T19:30:44.466Z,67.40
2023-02-14T19:33:11.730Z,67.70
2023-02-14T19:35:38.965Z,68.10
2023-02-14T19:38:06.246Z,68.00
2023-02-14T19:40:34.768Z,68.10
2023-02-14T19:43:01.985Z,67.90
2023-02-14T19:45:32.370Z,68.00
2023-02-14T19:48:01.585Z,68.10
2023-02-14T19:50:29.348Z,68.30
2023-02-14T19:52:58.015Z,68.20
2023-02-14T19:55:27.563Z,68.20
2023-02-14T19:57:57.551Z,67.90
2023-02-14T20:00:24.773Z,68.30
2023-02-14T20:02:52.131Z,68.20
2023-02-14T20:05:19.949Z,68.10
2023-02-14T20:07:51.876Z,68.10
2023-02-14T20:10:19.324Z,68.10
2023-02-14T20:12:46.725Z,68.00
2023-02-14T20:15:15.386Z,68.20
2023-02-14T20:17:42.653Z,68.20
2023-02-14T20:20:13.691Z,67.90
2023-02-14T20:22:40.927Z,67.90
2023-02-14T20:25:09.042Z,68.10
2023-02-14T20:27:36.476Z,68.10
2023-02-14T20:30:04.484Z,68.20
2023-02-14T20:32:33.671Z,68.20
2023-02-14T20:35:00.877Z,68.20
2023-02-14T20:37:28.234Z,68.10
2023-02-14T20:39:55.434Z,67.90
2023-02-14T20:42:23.457Z,68.30
2023-02-14T20:44:50.616Z,68.30
2023-02-14T20:47:17.932Z,68.80
2023-02-14T20:49:46.446Z,69.10
2023-02-14T20:52:13.693Z,69.40
2023-02-14T20:54:40.895Z,69.20
2023-02-14T20:57:08.076Z,69.00
2023-02-14T20:59:35.762Z,68.80
2023-02-14T21:02:03.081Z,68.80
2023-02-14T21:04:30.500Z,68.70
2023-02-14T21:07:00.433Z,68.90
2023-02-14T21:09:28.243Z,68.90
2023-02-14T21:11:55.542Z,68.80
2023-02-14T21:14:22.892Z,68.70
2023-02-14T21:16:50.257Z,68.50
2023-02-14T21:19:17.556Z,68.50
2023-02-14T21:21:44.810Z,68.50
2023-02-14T21:24:14.889Z,68.50
2023-02-14T21:26:42.988Z,68.60
2023-02-14T21:29:10.716Z,68.50
2023-02-14T21:31:38.787Z,68.40
2023-02-14T21:34:06.139Z,68.60
2023-02-14T21:36:36.928Z,68.80
2023-02-14T21:39:05.721Z,68.80
2023-02-14T21:41:35.645Z,68.60
2023-02-14T21:44:04.281Z,68.80
2023-02-14T21:46:33.346Z,68.70
2023-02-14T21:49:21.034Z,69.00
2023-02-14T21:51:48.294Z,69.20
2023-02-14T21:54:16.598Z,69.30
2023-02-14T21:56:45.339Z,69.10
2023-02-14T21:59:12.617Z,69.10
2023-02-14T22:01:42.031Z,69.10
2023-02-14T22:04:10.874Z,69.80
2023-02-14T22:06:39.863Z,70.50
2023-02-14T22:09:07.667Z,70.40
2023-02-14T22:11:35.371Z,70.40
2023-02-14T22:14:03.947Z,70.30
2023-02-14T22:16:31.264Z,70.00
2023-02-14T22:18:58.499Z,69.70
2023-02-14T22:21:26.801Z,69.50
2023-02-14T22:23:54.796Z,69.50
2023-02-14T22:26:24.091Z,69.30
2023-02-14T22:28:53.813Z,69.40
2023-02-14T22:31:23.581Z,69.50
2023-02-14T22:33:51.014Z,69.50
2023-02-14T22:36:18.239Z,69.40
2023-02-14T22:38:45.476Z,69.40
2023-02-14T22:41:14.992Z,69.50
2023-02-14T22:43:43.412Z,69.60
2023-02-14T22:46:13.141Z,69.40
2023-02-14T22:48:41.688Z,69.40
2023-02-14T22:51:11.065Z,69.30
2023-02-14T22:53:38.989Z,69.30
2023-02-14T22:56:11.075Z,69.50
2023-02-14T22:58:39.146Z,69.40
2023-02-14T23:01:06.782Z,69.40
2023-02-14T23:03:34.019Z,69.50
2023-02-14T23:06:02.781Z,69.60
2023-02-14T23:08:30.277Z,69.60
2023-02-14T23:10:57.505Z,69.70
2023-02-14T23:13:43.535Z,69.80
2023-02-14T23:16:29.582Z,69.90
2023-02-14T23:19:15.541Z,70.20
2023-02-14T23:21:56.261Z,70.20
2023-02-14T23:24:23.931Z,70.00
2023-02-14T23:26:51.640Z,69.90
2023-02-14T23:29:18.866Z,70.10
2023-02-14T23:31:46.291Z,69.80
2023-02-14T23:34:13.718Z,69.80
2023-02-14T23:36:40.972Z,69.80
2023-02-14T23:39:09.779Z,69.80
2023-02-14T23:41:49.233Z,69.80
2023-02-14T23:44:19.531Z,69.90
2023-02-14T23:46:48.185Z,69.80
2023-02-14T23:49:15.713Z,69.80
2023-02-14T23:51:43.738Z,69.80
2023-02-14T23:54:13.083Z,69.90
2023-02-14T23:56:40.842Z,69.70
2023-02-14T23:59:09.068Z,69.70
